Time;durP1;ratioP1;P1;durP2;ratioP2;P2;SDS_P1;SDS_P2;PMS_P1;PMS_P2;Temp;Humidity;BMP_temperature;BMP_pressure;BME280_temperature;BME280_humidity;BME280_pressure;Samples;Min_cycle;Max_cycle;Signal;HPM_P1;HPM_P2
2021/03/05 00:02:17;;;;;;;4.80;0.88;;;14.50;52.00;;;;;;5016959;28;20056;-81
2021/03/05 00:04:43;;;;;;;5.05;1.10;;;14.50;52.00;;;;;;5034411;28;20132;-80
2021/03/05 00:07:09;;;;;;;4.82;1.30;;;14.50;52.00;;;;;;5034654;28;20059;-80
2021/03/05 00:09:35;;;;;;;5.10;1.35;;;14.50;52.00;;;;;;5034748;28;20138;-80
2021/03/05 00:12:01;;;;;;;4.05;1.05;;;14.50;51.90;;;;;;5034455;28;20124;-80
2021/03/05 00:14:27;;;;;;;4.20;1.25;;;14.50;51.80;;;;;;5036996;28;20050;-79
2021/03/05 00:16:52;;;;;;;4.05;1.30;;;14.50;51.80;;;;;;5038625;28;20099;-79
2021/03/05 00:19:18;;;;;;;3.60;1.10;;;14.50;51.80;;;;;;5038420;28;20069;-80
2021/03/05 00:21:44;;;;;;;4.57;0.90;;;14.40;51.80;;;;;;5031769;28;20056;-81
2021/03/05 00:24:10;;;;;;;5.00;1.05;;;14.40;51.70;;;;;;5018581;28;20133;-79
2021/03/05 00:26:36;;;;;;;3.78;1.00;;;14.40;51.70;;;;;;5019308;28;20050;-81
2021/03/05 00:29:02;;;;;;;3.92;1.02;;;14.40;51.70;;;;;;5018423;28;20108;-79
2021/03/05 00:31:28;;;;;;;3.67;0.80;;;14.40;51.70;;;;;;5021846;28;20045;-80
2021/03/05 00:33:54;;;;;;;3.88;1.30;;;14.40;51.60;;;;;;5037936;28;20041;-80
2021/03/05 00:36:20;;;;;;;4.50;0.95;;;14.40;51.60;;;;;;5038563;28;20045;-80
2021/03/05 00:38:45;;;;;;;3.88;1.05;;;14.40;51.60;;;;;;5038228;28;20045;-80
2021/03/05 00:41:11;;;;;;;5.32;1.10;;;14.40;51.60;;;;;;5037403;28;20060;-81
2021/03/05 00:43:37;;;;;;;5.63;1.35;;;14.40;51.60;;;;;;5020792;28;20044;-81
2021/03/05 00:46:03;;;;;;;5.07;1.27;;;14.40;51.60;;;;;;5038690;28;20049;-80
2021/03/05 00:48:29;;;;;;;5.10;1.20;;;14.30;51.50;;;;;;5037828;28;20053;-80
2021/03/05 00:50:55;;;;;;;5.72;1.35;;;14.30;51.50;;;;;;5038296;28;20049;-80
2021/03/05 00:53:20;;;;;;;5.40;1.23;;;14.30;51.50;;;;;;5019973;28;20122;-81
2021/03/05 00:55:46;;;;;;;3.63;0.88;;;14.30;51.50;;;;;;5038002;28;20448;-80
2021/03/05 00:58:12;;;;;;;4.00;0.82;;;14.30;51.50;;;;;;5021034;28;20046;-81
2021/03/05 01:00:38;;;;;;;5.25;0.90;;;14.30;51.40;;;;;;5019881;28;20136;-80
2021/03/05 01:03:04;;;;;;;2.90;0.77;;;14.30;51.40;;;;;;5020541;28;20111;-80
2021/03/05 01:05:30;;;;;;;1.92;0.65;;;14.30;51.40;;;;;;5037560;28;20049;-80
2021/03/05 01:07:56;;;;;;;4.72;1.20;;;14.30;51.40;;;;;;5037465;28;20045;-80
2021/03/05 01:10:23;;;;;;;3.35;0.98;;;14.30;51.50;;;;;;5037340;28;20458;-79
2021/03/05 01:12:48;;;;;;;4.75;1.05;;;14.30;51.50;;;;;;5038308;28;20395;-81
2021/03/05 01:15:14;;;;;;;3.70;0.85;;;14.30;51.40;;;;;;5037461;28;20092;-80
2021/03/05 01:17:40;;;;;;;3.97;0.93;;;14.20;51.40;;;;;;5037245;28;20045;-79
2021/03/05 01:20:13;;;;;;;6.55;1.27;;;14.20;51.40;;;;;;5037005;28;20048;-81
2021/03/05 01:22:39;;;;;;;3.05;0.93;;;14.20;51.40;;;;;;5037197;28;20049;-80
2021/03/05 01:25:08;;;;;;;4.55;0.88;;;14.20;51.40;;;;;;5036885;28;20115;-79
2021/03/05 01:27:35;;;;;;;5.22;1.30;;;14.20;51.40;;;;;;5037405;28;20066;-79
2021/03/05 01:30:03;;;;;;;2.95;1.00;;;14.20;51.50;;;;;;5036843;28;20041;-80
2021/03/05 01:32:29;;;;;;;3.28;0.90;;;14.20;51.50;;;;;;5036542;28;20053;-80
2021/03/05 01:34:55;;;;;;;5.25;1.38;;;14.20;51.50;;;;;;5037481;28;20068;-80
2021/03/05 01:37:21;;;;;;;2.65;0.90;;;14.10;51.40;;;;;;5037801;28;20115;-80
2021/03/05 01:39:46;;;;;;;5.72;1.27;;;14.20;51.50;;;;;;5036802;28;20046;-80
2021/03/05 01:42:12;;;;;;;4.10;0.95;;;14.20;51.40;;;;;;5037264;28;20335;-80
2021/03/05 01:44:38;;;;;;;3.60;1.13;;;14.20;51.40;;;;;;5037146;28;20433;-81
2021/03/05 01:47:04;;;;;;;3.63;0.82;;;14.20;51.40;;;;;;5037405;28;20045;-79
2021/03/05 01:49:30;;;;;;;4.47;1.05;;;14.10;51.20;;;;;;5036817;28;20045;-80
2021/03/05 01:51:56;;;;;;;4.80;1.00;;;14.10;51.20;;;;;;5036241;28;20052;-80
2021/03/05 01:54:22;;;;;;;3.58;0.82;;;14.10;51.20;;;;;;5036837;28;20037;-79
2021/03/05 01:56:50;;;;;;;3.70;0.82;;;14.10;51.20;;;;;;5036974;28;20071;-81
2021/03/05 01:59:38;;;;;;;3.78;0.73;;;14.10;51.20;;;;;;5036917;28;20038;-80
2021/03/05 02:02:07;;;;;;;1.92;0.80;;;14.10;51.20;;;;;;5017196;28;20053;-80
2021/03/05 02:04:38;;;;;;;2.90;0.65;;;14.10;51.20;;;;;;5017317;28;20050;-81
2021/03/05 02:07:06;;;;;;;5.80;0.88;;;14.10;51.20;;;;;;5016717;28;20060;-79
2021/03/05 02:09:33;;;;;;;5.75;1.02;;;14.10;51.10;;;;;;5017265;28;20042;-80
2021/03/05 02:12:00;;;;;;;4.88;1.13;;;14.10;51.10;;;;;;5036027;28;20156;-79
2021/03/05 02:14:26;;;;;;;3.47;1.10;;;14.10;51.20;;;;;;5036729;28;20127;-79
2021/03/05 02:17:25;;;;;;;4.38;1.05;;;14.10;51.20;;;;;;5036390;28;20072;-79
2021/03/05 02:20:03;;;;;;;4.18;0.88;;;14.10;51.10;;;;;;5036089;28;20504;-80
2021/03/05 02:22:59;;;;;;;3.53;0.90;;;14.10;51.20;;;;;;5036139;28;20045;-80
2021/03/05 02:25:31;;;;;;;3.83;0.65;;;14.10;51.20;;;;;;5036366;28;20462;-81
2021/03/05 02:28:35;;;;;;;5.95;1.45;;;14.00;51.10;;;;;;5015345;28;20387;-79
2021/03/05 02:31:32;;;;;;;5.57;0.90;;;14.00;51.10;;;;;;5031225;28;20065;-79
2021/03/05 02:34:22;;;;;;;5.00;0.93;;;14.00;51.00;;;;;;5035977;28;20093;-81
2021/03/05 02:36:58;;;;;;;4.95;0.68;;;14.00;51.10;;;;;;5036340;28;20050;-80
2021/03/05 02:39:41;;;;;;;5.93;1.40;;;14.00;50.90;;;;;;5036416;28;20052;-80
2021/03/05 02:42:10;;;;;;;4.63;0.93;;;14.00;50.90;;;;;;5035479;28;20045;-80
2021/03/05 02:45:02;;;;;;;4.40;0.90;;;14.00;50.90;;;;;;5035750;28;20168;-80
2021/03/05 02:47:31;;;;;;;5.25;1.00;;;14.00;50.90;;;;;;5035483;28;20052;-80
2021/03/05 02:49:57;;;;;;;4.22;1.10;;;13.90;50.90;;;;;;5035794;28;20045;-80
2021/03/05 02:52:26;;;;;;;2.85;0.95;;;13.90;50.90;;;;;;5035770;28;20055;-81
2021/03/05 02:54:55;;;;;;;4.45;1.15;;;13.90;50.90;;;;;;5035334;28;20055;-80
2021/03/05 02:57:24;;;;;;;3.10;0.73;;;13.90;50.90;;;;;;5035589;28;20042;-81
2021/03/05 02:59:51;;;;;;;2.20;0.50;;;13.90;50.70;;;;;;5035852;28;20110;-81
2021/03/05 03:02:23;;;;;;;5.65;0.70;;;13.90;50.80;;;;;;5035661;28;20050;-81
2021/03/05 03:04:50;;;;;;;4.35;0.65;;;13.90;51.20;;;;;;5035062;28;20453;-80
2021/03/05 03:07:16;;;;;;;4.07;0.60;;;13.90;50.80;;;;;;5035468;28;20073;-81
2021/03/05 03:09:42;;;;;;;4.57;1.33;;;13.90;50.70;;;;;;5035715;28;20139;-81
2021/03/05 03:12:10;;;;;;;4.15;0.70;;;13.90;50.70;;;;;;5035524;28;20045;-79
2021/03/05 03:14:41;;;;;;;3.63;0.70;;;13.90;50.80;;;;;;5017660;28;20046;-79
2021/03/05 03:17:08;;;;;;;4.03;0.82;;;13.90;51.40;;;;;;5034983;28;20064;-81
2021/03/05 03:19:36;;;;;;;3.63;1.00;;;13.90;50.90;;;;;;5035495;28;20192;-81
2021/03/05 03:22:02;;;;;;;3.28;0.60;;;13.90;50.80;;;;;;5035173;28;20041;-79
2021/03/05 03:24:29;;;;;;;4.47;1.00;;;13.90;50.90;;;;;;5035112;28;20124;-81
2021/03/05 03:26:55;;;;;;;6.00;0.95;;;13.80;50.80;;;;;;5036004;28;20130;-80
2021/03/05 03:29:25;;;;;;;2.90;0.73;;;13.80;50.80;;;;;;5034847;28;20115;-80
2021/03/05 03:31:52;;;;;;;2.30;0.70;;;13.80;50.80;;;;;;5034948;28;20049;-80
2021/03/05 03:34:20;;;;;;;3.33;1.08;;;13.80;50.80;;;;;;5035062;28;20111;-80
2021/03/05 03:36:47;;;;;;;3.25;0.90;;;13.80;50.80;;;;;;5034844;28;20049;-80
2021/03/05 03:39:13;;;;;;;3.40;1.00;;;13.80;50.80;;;;;;5035190;28;20064;-79
2021/03/05 03:41:40;;;;;;;3.53;0.80;;;13.80;50.80;;;;;;5034886;28;20049;-80
2021/03/05 03:44:11;;;;;;;4.18;0.90;;;13.80;50.70;;;;;;5024214;28;20074;-79
2021/03/05 03:46:42;;;;;;;2.63;0.75;;;13.80;50.70;;;;;;5015208;28;20049;-81
2021/03/05 03:49:12;;;;;;;4.30;0.75;;;13.80;50.60;;;;;;5016978;28;20359;-80
2021/03/05 03:51:44;;;;;;;3.17;0.55;;;13.80;50.50;;;;;;5019342;28;20184;-81
2021/03/05 03:54:15;;;;;;;4.97;1.00;;;13.80;50.50;;;;;;5029346;28;20053;-80
2021/03/05 03:56:42;;;;;;;3.45;0.80;;;13.80;50.50;;;;;;5038708;28;20056;-80
2021/03/05 03:59:11;;;;;;;3.78;1.08;;;13.80;50.60;;;;;;5039037;28;20092;-80
2021/03/05 04:01:38;;;;;;;2.42;0.47;;;13.80;50.50;;;;;;5031299;28;20117;-80
2021/03/05 04:04:06;;;;;;;2.33;0.80;;;13.80;50.40;;;;;;5001737;28;20093;-80
2021/03/05 04:06:34;;;;;;;1.88;0.50;;;13.80;50.40;;;;;;5019229;28;20046;-80
2021/03/05 04:09:01;;;;;;;3.70;0.63;;;13.70;50.40;;;;;;5019320;28;20041;-80
2021/03/05 04:11:28;;;;;;;2.30;0.63;;;13.80;50.40;;;;;;5023854;28;20041;-80
2021/03/05 04:13:54;;;;;;;3.45;0.68;;;13.70;50.20;;;;;;5039074;28;20042;-81
2021/03/05 04:16:20;;;;;;;1.83;0.55;;;13.70;50.20;;;;;;5038848;28;20048;-80
2021/03/05 04:18:46;;;;;;;5.20;0.80;;;13.70;50.10;;;;;;5039312;28;20129;-79
2021/03/05 04:21:26;;;;;;;2.53;0.60;;;13.70;50.10;;;;;;5034539;28;20113;-80
2021/03/05 04:23:52;;;;;;;1.80;0.45;;;13.70;49.90;;;;;;5019048;28;20068;-79
2021/03/05 04:26:18;;;;;;;1.95;0.43;;;13.70;49.80;;;;;;5018737;28;20491;-80
2021/03/05 04:28:44;;;;;;;4.13;0.85;;;13.70;50.00;;;;;;5020131;28;20058;-81
2021/03/05 04:31:10;;;;;;;2.78;0.50;;;13.70;50.10;;;;;;5039012;28;20045;-79
2021/03/05 04:33:36;;;;;;;2.60;0.60;;;13.70;50.10;;;;;;5038529;28;20111;-80
2021/03/05 04:36:05;;;;;;;2.30;0.70;;;13.70;49.90;;;;;;5038207;28;20053;-80
2021/03/05 04:38:31;;;;;;;3.10;0.73;;;13.70;50.00;;;;;;5038798;28;20045;-80
2021/03/05 04:40:57;;;;;;;3.35;0.60;;;13.60;49.70;;;;;;5019936;28;20054;-79
2021/03/05 04:43:24;;;;;;;3.13;0.55;;;13.60;49.80;;;;;;5038117;28;20045;-80
2021/03/05 04:45:50;;;;;;;1.90;0.70;;;13.60;49.80;;;;;;5038271;28;20041;-80
2021/03/05 04:48:16;;;;;;;2.33;0.68;;;13.60;49.70;;;;;;5038268;28;20103;-80
2021/03/05 04:50:42;;;;;;;2.88;1.00;;;13.60;49.60;;;;;;5021164;28;20451;-79
2021/03/05 04:53:08;;;;;;;3.08;0.50;;;13.60;49.60;;;;;;5018579;28;20049;-80
2021/03/05 04:55:34;;;;;;;1.85;0.30;;;13.60;49.80;;;;;;5018179;28;20355;-81
2021/03/05 04:57:59;;;;;;;3.13;0.43;;;13.60;49.80;;;;;;5018303;28;20443;-81
2021/03/05 05:00:26;;;;;;;3.95;0.98;;;13.60;49.00;;;;;;5031303;28;20355;-78
2021/03/05 05:02:52;;;;;;;2.95;0.70;;;13.50;48.00;;;;;;5037715;28;20076;-83
2021/03/05 05:05:17;;;;;;;5.00;1.00;;;13.50;48.00;;;;;;5037615;28;20042;-79
2021/03/05 05:07:43;;;;;;;3.17;0.93;;;13.50;48.40;;;;;;5036166;28;20049;-81
2021/03/05 05:10:10;;;;;;;5.00;0.63;;;13.50;49.00;;;;;;5052763;28;20396;-79
2021/03/05 05:12:36;;;;;;;13.27;1.20;;;13.50;49.60;;;;;;5045121;28;20048;-79
2021/03/05 05:15:06;;;;;;;7.22;1.27;;;13.60;50.10;;;;;;5037689;28;20046;-78
2021/03/05 05:17:33;;;;;;;15.57;1.50;;;13.60;50.50;;;;;;5020754;28;20134;-78
2021/03/05 05:20:00;;;;;;;12.63;1.17;;;13.60;51.00;;;;;;5037513;28;20386;-86
2021/03/05 05:22:26;;;;;;;4.47;0.88;;;13.70;51.50;;;;;;5019856;28;20450;-79
2021/03/05 05:24:52;;;;;;;9.15;1.40;;;13.70;51.40;;;;;;5040169;28;20381;-80
2021/03/05 05:27:18;;;;;;;6.10;1.50;;;13.80;52.00;;;;;;5057400;28;20051;-78
2021/03/05 05:29:44;;;;;;;5.82;1.10;;;13.90;52.20;;;;;;5038385;28;20116;-78
2021/03/05 05:32:10;;;;;;;6.50;1.35;;;14.00;52.40;;;;;;5037297;28;20111;-79
2021/03/05 05:34:36;;;;;;;7.22;1.13;;;14.10;52.70;;;;;;5035214;28;20049;-80
2021/03/05 05:37:02;;;;;;;7.57;1.10;;;14.10;53.00;;;;;;5051164;28;20122;-81
2021/03/05 05:39:28;;;;;;;9.70;0.90;;;14.30;53.50;;;;;;5056401;28;20041;-78
2021/03/05 05:41:58;;;;;;;8.60;1.10;;;14.30;53.60;;;;;;5037710;28;20057;-81
2021/03/05 05:44:24;;;;;;;5.43;1.38;;;14.40;53.90;;;;;;5037125;28;20111;-78
2021/03/05 05:46:51;;;;;;;7.30;0.93;;;14.50;53.90;;;;;;5044231;28;20045;-78
2021/03/05 05:49:19;;;;;;;13.48;1.50;;;14.50;54.00;;;;;;5036136;28;20099;-83
2021/03/05 05:51:47;;;;;;;5.38;1.02;;;14.60;54.00;;;;;;5037227;28;20099;-79
2021/03/05 05:54:21;;;;;;;4.32;0.82;;;14.70;54.10;;;;;;5035097;28;20332;-78
2021/03/05 05:56:47;;;;;;;4.53;0.85;;;14.60;48.00;;;;;;5036534;28;20446;-78
2021/03/05 05:59:14;;;;;;;4.47;0.75;;;14.50;49.10;;;;;;5037490;28;20053;-79
2021/03/05 06:01:41;;;;;;;3.72;0.70;;;14.40;50.50;;;;;;5036875;28;20482;-79
2021/03/05 06:04:07;;;;;;;7.95;0.85;;;14.40;51.00;;;;;;5036736;28;20132;-80
2021/03/05 06:06:37;;;;;;;7.50;0.73;;;14.50;51.80;;;;;;5036557;28;20132;-86
2021/03/05 06:09:04;;;;;;;3.45;0.80;;;14.50;52.30;;;;;;5035998;28;20030;-78
2021/03/05 06:11:32;;;;;;;2.97;0.70;;;14.70;52.40;;;;;;5035839;28;20042;-79
2021/03/05 06:14:00;;;;;;;2.40;0.40;;;14.70;52.60;;;;;;5036015;28;20050;-78
2021/03/05 06:16:27;;;;;;;6.43;0.75;;;14.80;52.90;;;;;;5036425;28;20366;-78
2021/03/05 06:18:53;;;;;;;13.52;1.15;;;14.90;53.20;;;;;;5036432;28;20051;-78
2021/03/05 06:21:35;;;;;;;5.18;0.65;;;15.00;53.60;;;;;;5036136;28;20046;-79
2021/03/05 06:24:04;;;;;;;11.60;0.82;;;15.10;54.00;;;;;;5036451;28;20068;-80
2021/03/05 06:26:45;;;;;;;6.20;0.57;;;15.10;54.10;;;;;;5035490;28;20091;-81
2021/03/05 06:29:11;;;;;;;5.03;1.10;;;15.20;54.40;;;;;;5018313;28;20072;-81
2021/03/05 06:31:37;;;;;;;5.32;0.52;;;15.30;54.50;;;;;;5036607;28;20038;-80
2021/03/05 06:34:04;;;;;;;3.97;0.40;;;15.30;54.60;;;;;;5036230;28;20512;-80
2021/03/05 06:36:31;;;;;;;2.92;0.50;;;15.30;54.80;;;;;;5035211;28;20049;-82
2021/03/05 06:38:59;;;;;;;3.95;0.60;;;15.40;54.60;;;;;;5036745;28;20419;-81
2021/03/05 06:41:26;;;;;;;5.28;0.60;;;15.40;54.20;;;;;;5035644;28;20077;-81
2021/03/05 06:43:53;;;;;;;6.50;0.80;;;15.50;54.60;;;;;;5035340;28;20045;-81
2021/03/05 06:46:36;;;;;;;5.05;0.75;;;15.50;54.70;;;;;;5035275;28;20438;-81
2021/03/05 06:49:34;;;;;;;3.75;0.40;;;15.50;54.60;;;;;;5016466;28;20041;-84
2021/03/05 06:52:10;;;;;;;7.43;0.88;;;15.60;54.60;;;;;;4992357;28;20045;-82
2021/03/05 06:55:01;;;;;;;7.38;0.60;;;15.60;54.60;;;;;;4994811;28;20118;-83
2021/03/05 07:00:46;;;;;;;8.95;0.80;;;15.70;54.60;;;;;;5012478;28;20056;-80
2021/03/05 07:03:43;;;;;;;8.23;1.27;;;15.70;52.70;;;;;;5020548;28;20049;-83
2021/03/05 07:11:39;;;;;;;6.90;0.50;;;15.50;51.40;;;;;;4933008;29;20086;-83
2021/03/05 07:15:09;;;;;;;;;;;;;;;;;;;;;
2021/03/05 07:19:08;;;;;;;4.32;0.40;;;15.50;52.30;;;;;;4956471;28;20057;-83
2021/03/05 07:22:28;;;;;;;5.28;0.50;;;15.40;52.90;;;;;;4914500;29;20074;-83
2021/03/05 07:26:13;;;;;;;;;;;;;;;;;;;;;
2021/03/05 07:33:39;;;;;;;5.85;0.60;;;15.50;52.00;;;;;;5014857;28;20084;-83
2021/03/05 07:41:02;;;;;;;;;;;;;;;;;;;;;
2021/03/05 07:44:29;;;;;;;3.97;0.60;;;15.50;51.80;;;;;;4973802;28;20055;-83
2021/03/05 07:55:32;;;;;;;2.63;0.22;;;15.40;51.70;;;;;;4933316;29;20047;-82
2021/03/05 08:06:52;;;;;;;2.72;0.50;;;15.30;51.60;;;;;;4968698;28;20058;-83
2021/03/05 08:09:53;;;;;;;3.05;0.63;;;15.30;51.70;;;;;;4896901;29;20044;-83
2021/03/05 08:13:12;;;;;;;;;;;;;;;;;;;;;
2021/03/05 08:16:50;;;;;;;1.77;0.43;;;15.30;51.70;;;;;;4985779;28;20046;-82
2021/03/05 08:27:30;;;;;;;2.60;0.30;;;15.30;52.20;;;;;;4897148;29;20512;-83
2021/03/05 08:30:04;;;;;;;1.73;0.52;;;15.40;52.30;;;;;;4912160;28;20143;-82
2021/03/05 08:32:33;;;;;;;2.03;0.52;;;15.40;52.50;;;;;;4916111;29;20054;-82
2021/03/05 08:35:41;;;;;;;2.05;0.32;;;15.40;52.50;;;;;;4958939;28;20150;-83
2021/03/05 08:38:24;;;;;;;1.17;0.40;;;15.50;52.50;;;;;;4946150;28;20528;-84
2021/03/05 08:42:05;;;;;;;1.10;0.20;;;15.50;52.60;;;;;;4961854;28;20375;-83
2021/03/05 08:48:36;;;;;;;1.52;0.40;;;15.60;52.50;;;;;;5035510;28;20041;-82
2021/03/05 08:51:17;;;;;;;9.52;1.38;;;15.50;52.50;;;;;;5037534;28;20045;-82
2021/03/05 08:53:49;;;;;;;6.68;0.63;;;15.60;51.10;;;;;;5019470;28;20136;-83
2021/03/05 08:56:28;;;;;;;5.28;0.70;;;15.50;48.50;;;;;;5018904;28;20037;-83
2021/03/05 08:59:09;;;;;;;1.88;0.40;;;15.40;49.10;;;;;;5019485;28;20069;-81
2021/03/05 09:01:43;;;;;;;8.82;0.73;;;15.40;50.20;;;;;;5019761;28;20339;-80
2021/03/05 09:04:16;;;;;;;3.63;0.50;;;15.40;50.80;;;;;;5019806;28;20394;-86
2021/03/05 09:06:56;;;;;;;10.93;0.70;;;15.50;51.10;;;;;;5036954;28;20116;-80
2021/03/05 09:09:27;;;;;;;9.40;0.50;;;15.50;51.30;;;;;;5036710;28;20030;-79
2021/03/05 09:12:09;;;;;;;4.35;0.55;;;15.50;51.60;;;;;;5037288;28;20033;-82
2021/03/05 09:14:35;;;;;;;6.07;0.60;;;15.60;50.40;;;;;;5012050;28;20572;-83
2021/03/05 09:17:03;;;;;;;6.72;0.50;;;15.60;48.60;;;;;;5037138;28;20041;-82
2021/03/05 09:19:34;;;;;;;12.75;0.88;;;15.50;47.20;;;;;;5037523;28;20042;-80
2021/03/05 09:22:18;;;;;;;8.07;0.75;;;15.50;46.00;;;;;;5037154;28;20045;-80
2021/03/05 09:24:47;;;;;;;2.67;0.63;;;15.40;46.20;;;;;;5036829;28;20052;-79
2021/03/05 09:27:24;;;;;;;4.68;0.70;;;15.40;47.70;;;;;;5037061;28;20284;-79
2021/03/05 09:29:51;;;;;;;5.15;0.70;;;15.40;48.70;;;;;;5037171;28;20053;-78
2021/03/05 09:32:18;;;;;;;4.18;0.75;;;15.40;48.70;;;;;;5037043;28;20052;-80
2021/03/05 09:34:51;;;;;;;4.10;0.70;;;15.50;46.30;;;;;;5037559;28;20072;-82
2021/03/05 09:37:18;;;;;;;;;;;15.40;44.20;;;;;;5019900;28;20134;-83
2021/03/05 09:39:46;;;;;;;9.18;0.90;;;15.20;44.90;;;;;;5019650;28;19949;-80
2021/03/05 09:42:12;;;;;;;4.88;0.65;;;15.10;42.80;;;;;;5019248;28;20462;-82
2021/03/05 09:44:45;;;;;;;3.45;0.50;;;15.00;42.00;;;;;;5019432;28;20136;-80
2021/03/05 09:47:11;;;;;;;7.22;0.60;;;14.80;41.10;;;;;;5036042;28;20045;-79
2021/03/05 09:49:38;;;;;;;5.20;0.65;;;14.70;40.90;;;;;;5036663;28;20071;-82
2021/03/05 09:52:04;;;;;;;10.18;2.60;;;14.50;41.50;;;;;;5036575;28;20049;-80
2021/03/05 09:54:38;;;;;;;6.57;1.30;;;14.50;42.60;;;;;;5036730;28;20029;-81
2021/03/05 09:57:04;;;;;;;;;;;14.50;42.90;;;;;;5037159;28;20049;-81
2021/03/05 09:59:41;;;;;;;8.45;1.63;;;14.50;43.60;;;;;;5019125;28;19956;-80
2021/03/05 10:02:08;;;;;;;6.25;0.90;;;14.50;43.20;;;;;;5036768;28;20057;-80
2021/03/05 10:04:48;;;;;;;4.43;1.02;;;14.50;43.40;;;;;;5036575;28;20374;-78
2021/03/05 10:07:15;;;;;;;6.22;0.80;;;14.50;44.40;;;;;;5036552;28;20137;-82
2021/03/05 10:09:41;;;;;;;5.22;0.55;;;14.60;45.10;;;;;;5036683;28;20116;-79
2021/03/05 10:12:08;;;;;;;4.80;0.70;;;14.60;44.70;;;;;;5036360;28;20041;-79
2021/03/05 10:14:36;;;;;;;3.95;0.85;;;14.70;44.50;;;;;;5036370;28;20077;-78
2021/03/05 10:17:17;;;;;;;4.22;0.60;;;14.70;44.30;;;;;;5036540;28;20045;-80
2021/03/05 10:19:47;;;;;;;3.28;0.57;;;14.70;44.90;;;;;;5036150;28;20049;-79
2021/03/05 10:22:13;;;;;;;4.63;0.90;;;14.70;45.90;;;;;;5036094;28;20041;-80
2021/03/05 10:24:43;;;;;;;6.38;0.70;;;14.70;45.80;;;;;;5035775;28;20081;-79
2021/03/05 10:27:20;;;;;;;3.60;0.77;;;14.80;46.10;;;;;;5035864;28;20067;-79
2021/03/05 10:29:48;;;;;;;3.28;0.70;;;14.80;46.90;;;;;;5035825;28;20462;-81
2021/03/05 10:32:20;;;;;;;3.22;0.65;;;14.80;47.30;;;;;;5036369;28;20052;-78
2021/03/05 10:34:48;;;;;;;2.72;0.63;;;14.80;47.40;;;;;;5035832;28;20049;-79
2021/03/05 10:37:15;;;;;;;2.97;0.70;;;14.80;47.30;;;;;;5035808;28;20057;-80
2021/03/05 10:39:42;;;;;;;2.58;0.70;;;14.90;47.20;;;;;;5036177;28;20049;-83
2021/03/05 10:42:14;;;;;;;2.30;0.50;;;14.90;47.40;;;;;;5035815;28;20037;-81
2021/03/05 10:44:41;;;;;;;3.53;0.85;;;14.90;46.60;;;;;;5035926;28;20037;-80
2021/03/05 10:47:12;;;;;;;3.75;0.77;;;14.90;47.20;;;;;;5035729;28;20041;-80
2021/03/05 10:49:39;;;;;;;4.50;0.68;;;15.00;47.00;;;;;;5035386;28;20362;-80
2021/03/05 10:52:07;;;;;;;7.20;0.60;;;15.00;47.60;;;;;;5035778;28;20120;-82
2021/03/05 10:54:33;;;;;;;2.35;0.43;;;15.00;48.00;;;;;;5035853;28;20049;-80
2021/03/05 10:56:59;;;;;;;2.17;0.43;;;15.00;48.20;;;;;;5015655;28;20045;-80
2021/03/05 10:59:26;;;;;;;6.13;0.80;;;15.00;48.10;;;;;;5034270;28;20055;-79
2021/03/05 11:01:53;;;;;;;2.60;0.32;;;15.00;48.30;;;;;;5034813;28;20034;-79
2021/03/05 11:04:20;;;;;;;3.78;0.60;;;15.00;47.80;;;;;;5017573;28;20065;-79
2021/03/05 11:06:49;;;;;;;11.15;0.73;;;15.00;48.30;;;;;;5017101;28;20370;-81
2021/03/05 11:09:19;;;;;;;4.32;0.63;;;15.10;48.90;;;;;;5033411;28;20104;-80
2021/03/05 11:11:46;;;;;;;3.58;0.60;;;15.10;49.90;;;;;;5016709;28;20088;-80
2021/03/05 11:14:14;;;;;;;3.53;0.50;;;15.20;49.30;;;;;;5034261;28;20060;-82
2021/03/05 11:16:40;;;;;;;1.65;0.40;;;15.20;49.10;;;;;;5034801;28;20076;-79
2021/03/05 11:19:07;;;;;;;2.05;0.40;;;15.20;49.00;;;;;;5034753;28;20517;-80
2021/03/05 11:21:34;;;;;;;3.35;0.32;;;15.30;49.10;;;;;;5016154;28;20049;-80
2021/03/05 11:24:00;;;;;;;1.50;0.45;;;15.30;49.10;;;;;;5034525;28;20056;-80
2021/03/05 11:26:26;;;;;;;2.65;0.40;;;15.40;49.20;;;;;;5034711;28;20041;-79
2021/03/05 11:28:53;;;;;;;2.78;0.30;;;15.40;49.30;;;;;;5016567;28;20133;-79
2021/03/05 11:31:19;;;;;;;3.15;0.60;;;15.40;49.20;;;;;;5033402;28;20053;-79
2021/03/05 11:33:45;;;;;;;1.25;0.50;;;15.50;49.40;;;;;;5034169;28;20052;-80
2021/03/05 11:36:12;;;;;;;1.70;0.50;;;15.50;49.50;;;;;;5033811;28;20045;-81
2021/03/05 11:38:42;;;;;;;1.73;0.75;;;15.50;49.50;;;;;;5034697;28;20041;-79
2021/03/05 11:41:09;;;;;;;2.78;0.40;;;15.50;49.40;;;;;;5034496;28;20044;-80
2021/03/05 11:43:43;;;;;;;2.38;0.57;;;15.50;49.50;;;;;;5034391;28;20045;-80
2021/03/05 11:46:09;;;;;;;1.20;0.30;;;15.60;49.50;;;;;;5015328;28;20374;-79
2021/03/05 11:48:35;;;;;;;1.55;0.70;;;15.60;49.50;;;;;;5034486;28;20047;-80
2021/03/05 11:51:02;;;;;;;1.83;0.28;;;15.60;47.30;;;;;;5030627;28;20052;-86
2021/03/05 11:53:30;;;;;;;2.03;0.43;;;15.60;47.90;;;;;;5017334;28;20076;-79
2021/03/05 11:55:56;;;;;;;3.92;0.60;;;15.60;48.70;;;;;;5034022;28;20065;-81
2021/03/05 11:58:22;;;;;;;2.63;0.40;;;15.70;48.80;;;;;;5034101;28;20379;-79
2021/03/05 12:00:49;;;;;;;6.18;0.80;;;15.70;48.80;;;;;;5034299;28;20045;-82
2021/03/05 12:03:15;;;;;;;2.05;0.30;;;15.70;49.30;;;;;;5034810;28;20045;-80
2021/03/05 12:05:41;;;;;;;4.75;0.50;;;15.80;49.20;;;;;;5034985;28;20073;-79
2021/03/05 12:08:07;;;;;;;3.38;0.52;;;15.80;48.90;;;;;;5035343;28;20041;-79
2021/03/05 12:10:38;;;;;;;2.97;0.70;;;15.80;48.30;;;;;;5037125;28;20103;-80
2021/03/05 12:13:05;;;;;;;4.28;0.80;;;15.80;48.80;;;;;;5038449;28;20049;-81
2021/03/05 12:15:31;;;;;;;3.97;0.65;;;15.80;49.30;;;;;;5038558;28;20128;-79
2021/03/05 12:17:58;;;;;;;2.97;0.40;;;15.80;49.60;;;;;;5038681;28;20374;-79
2021/03/05 12:20:24;;;;;;;2.20;0.45;;;15.80;49.70;;;;;;5021568;28;20037;-79
2021/03/05 12:22:50;;;;;;;3.20;0.40;;;15.90;50.00;;;;;;5038725;28;20049;-81
2021/03/05 12:25:36;;;;;;;1.77;0.35;;;15.90;50.10;;;;;;5052002;28;20049;-79
2021/03/05 12:28:21;;;;;;;3.33;0.70;;;15.90;50.20;;;;;;5052461;28;20377;-78
2021/03/05 12:31:07;;;;;;;2.40;0.70;;;15.90;50.20;;;;;;5051126;28;20376;-80
2021/03/05 12:33:54;;;;;;;1.52;0.40;;;15.90;50.30;;;;;;5024267;28;20473;-78
2021/03/05 12:36:40;;;;;;;3.70;0.50;;;15.90;50.30;;;;;;5051455;28;20443;-79
2021/03/05 12:39:26;;;;;;;2.25;0.30;;;15.90;50.30;;;;;;5051579;28;20149;-79
2021/03/05 12:41:52;;;;;;;3.28;0.50;;;15.90;50.30;;;;;;5020667;28;20414;-79
2021/03/05 12:44:18;;;;;;;4.00;0.47;;;15.90;50.30;;;;;;5038450;28;20049;-79
2021/03/05 12:46:45;;;;;;;0.70;0.20;;;15.90;50.30;;;;;;5038239;28;20053;-79
2021/03/05 12:49:11;;;;;;;2.05;0.40;;;15.90;50.30;;;;;;5037976;28;20128;-81
2021/03/05 12:51:37;;;;;;;3.15;0.60;;;15.90;50.30;;;;;;5038067;28;20116;-79
2021/03/05 12:54:04;;;;;;;2.75;0.52;;;15.80;50.10;;;;;;5038260;28;20065;-79
2021/03/05 12:56:31;;;;;;;2.03;0.57;;;15.80;50.70;;;;;;5038208;28;20049;-79
2021/03/05 12:58:56;;;;;;;3.88;0.60;;;15.80;50.10;;;;;;5037764;28;20049;-78
2021/03/05 13:01:22;;;;;;;4.65;0.70;;;15.80;50.00;;;;;;5037713;28;20114;-79
2021/03/05 13:03:48;;;;;;;2.00;0.50;;;15.80;50.00;;;;;;5037913;28;20049;-79
2021/03/05 13:06:15;;;;;;;3.60;0.70;;;15.80;50.20;;;;;;5037976;28;20446;-80
2021/03/05 13:08:40;;;;;;;1.75;0.50;;;15.80;50.30;;;;;;5037627;28;20458;-79
2021/03/05 13:11:07;;;;;;;2.80;0.60;;;15.70;50.30;;;;;;5037455;28;20080;-79
2021/03/05 13:13:34;;;;;;;2.83;0.50;;;15.80;50.40;;;;;;5037911;28;20054;-79
2021/03/05 13:16:00;;;;;;;3.05;0.50;;;15.80;50.40;;;;;;5037543;28;20053;-79
2021/03/05 13:18:26;;;;;;;4.07;0.75;;;15.70;50.20;;;;;;5037908;28;20080;-79
2021/03/05 13:20:52;;;;;;;2.85;0.30;;;15.80;50.20;;;;;;5036896;28;20049;-79
2021/03/05 13:23:18;;;;;;;3.22;0.32;;;15.80;50.20;;;;;;5038204;28;20041;-80
2021/03/05 13:25:45;;;;;;;2.45;0.52;;;15.80;50.40;;;;;;5037652;28;20351;-78
2021/03/05 13:28:11;;;;;;;1.58;0.43;;;15.80;50.40;;;;;;5037144;28;20056;-80
2021/03/05 13:30:37;;;;;;;1.67;0.40;;;15.70;50.40;;;;;;5037344;28;20065;-79
2021/03/05 13:33:03;;;;;;;2.90;0.47;;;15.70;50.30;;;;;;5037091;28;20103;-80
2021/03/05 13:35:30;;;;;;;1.17;0.40;;;15.80;50.50;;;;;;5019504;28;20478;-78
2021/03/05 13:37:57;;;;;;;3.63;0.45;;;15.80;50.40;;;;;;5037437;28;20068;-80
2021/03/05 13:40:24;;;;;;;4.53;1.42;;;15.80;50.40;;;;;;5036801;28;20465;-79
2021/03/05 13:42:50;;;;;;;5.05;0.73;;;15.80;48.60;;;;;;5036886;28;20042;-78
2021/03/05 13:45:17;;;;;;;11.52;1.35;;;15.70;47.80;;;;;;5037023;28;20072;-79
2021/03/05 13:47:44;;;;;;;8.32;1.20;;;15.70;46.50;;;;;;5035286;28;20412;-80
2021/03/05 13:50:10;;;;;;;4.78;1.00;;;15.60;45.70;;;;;;5018833;28;20045;-80
2021/03/05 13:52:36;;;;;;;3.63;0.75;;;15.50;46.80;;;;;;5037078;28;20041;-79
2021/03/05 13:55:03;;;;;;;4.57;0.75;;;15.50;47.80;;;;;;5036896;28;20124;-79
2021/03/05 13:57:30;;;;;;;6.43;0.90;;;15.50;48.40;;;;;;5036493;28;20044;-79
2021/03/05 13:59:57;;;;;;;5.00;0.70;;;15.50;48.80;;;;;;5036383;28;20053;-81